Chessington, United Kingdom
Current Conditions -  °F | °C
As of 7:50 PM on Friday 24 Oct 2014 (Local Time) from EGLL Reporting Station
Broken Clouds Broken Clouds  
Wind Chill: 16°   Ceiling: 2000
Heat Index: 16°   Visibility: 6mi
Dew Point: 13°   Wind: 14mph
Humidity: 82%   Direction: 270°W
Pressure: 29.91"   Gusts: NA
Location:  51.37°N, 0.3°W
Report Text: EGLL 241850Z 27012KT 9999 FEW017 BKN020 16/13 Q1013
Loading
Personal Weather Stations






























Interactive Weather Map
Tropical Storm Tracking
New forecast layout! Learn more

10-Day Weather Forecast

Advertisements
Track Severe Weather on mobile